^^

..:: Storico WU ::..




Lo storico viene creato da WUnderground con i dati che la stazione Meteomincio invia al loro server. L' aggiornamento viene fatto ogni 5 minuti circa, tuttavia possono esserci intervalli pił ampi a causa di errori, interruzioni di servizio o problemi nell' invio tramite FTP.


Storico stazione MeteoMincio
 
Giorno Sommario per Maggio 26, 2022 Unità:  Metrico    Inglese   Entrambi
Giorno Settimana Mese Anno
  Corrente: Max: Min: Media:
Temperatura: 17.9 °C 21.1 °C 17.8 °C 19.4 °C
Dew Point: 15.8 °C 16.9 °C 15.7 °C 16.3 °C
Umidità: 88% 88% 77% 83%
Velocità vento: 3km/h 4km/h 0km/h 1.3km/h
Raffica: 6km/h 6km/h - -
DirezioneSE - - SW
Pressione: 1016.6 hPa 1016.6 hPa 1016.1 hPa -
Precipitazioni: 0.00 mm      
 
 
Tabulato Dati per Maggio 26, 2022
Ora Temperatura Dew Point Pressione Direzione Velocità vento Raffica Umidità Intensità pioggia (oraria) Info solare Situazione
00:04 21.1 °C 16.9 °C 1016.1 hPa WNW 2 km/h 4 km/h 77% 0.00 mm 0.00 W/m2 unknown
00:09 21.1 °C 16.8 °C 1016.2 hPa WNW 3 km/h 4 km/h 77% 0.00 mm 0.00 W/m2 unknown
00:14 20.9 °C 16.8 °C 1016.2 hPa WNW 2 km/h 4 km/h 78% 0.00 mm 0.00 W/m2 unknown
00:19 20.8 °C 16.8 °C 1016.2 hPa WNW 2 km/h 4 km/h 78% 0.00 mm 0.00 W/m2 unknown
00:24 20.8 °C 16.8 °C 1016.3 hPa NW 2 km/h 4 km/h 78% 0.00 mm 0.00 W/m2 unknown
00:29 20.8 °C 16.7 °C 1016.3 hPa NNE 2 km/h 4 km/h 78% 0.00 mm 0.00 W/m2 unknown
00:34 20.7 °C 16.6 °C 1016.4 hPa East 2 km/h 4 km/h 80% 0.00 mm 0.00 W/m2 unknown
00:39 20.2 °C 16.7 °C 1016.4 hPa East 1 km/h 2 km/h 81% 0.00 mm 0.00 W/m2 unknown
00:44 19.9 °C 16.6 °C 1016.5 hPa Calm   2 km/h 81% 0.00 mm 0.00 W/m2 unknown
00:49 20.0 °C 16.6 °C 1016.5 hPa Calm     81% 0.00 mm 0.00 W/m2 unknown
00:54 20.0 °C 16.6 °C 1016.5 hPa Calm     81% 0.00 mm 0.00 W/m2 unknown
00:59 19.9 °C 16.7 °C 1016.5 hPa Calm     82% 0.00 mm 0.00 W/m2 unknown
01:04 19.8 °C 16.7 °C 1016.5 hPa Calm     82% 0.00 mm 0.00 W/m2 unknown
01:09 19.8 °C 16.6 °C 1016.4 hPa Calm     82% 0.00 mm 0.00 W/m2 unknown
01:14 19.8 °C 16.6 °C 1016.4 hPa NE 1 km/h 2 km/h 82% 0.00 mm 0.00 W/m2 unknown
01:19 19.8 °C 16.6 °C 1016.4 hPa NNE 2 km/h 4 km/h 82% 0.00 mm 0.00 W/m2 unknown
01:24 19.9 °C 16.6 °C 1016.4 hPa North 4 km/h 6 km/h 81% 0.00 mm 0.00 W/m2 unknown
01:29 20.0 °C 16.6 °C 1016.3 hPa NNW 4 km/h 6 km/h 81% 0.00 mm 0.00 W/m2 unknown
01:34 20.1 °C 16.6 °C 1016.3 hPa North 4 km/h 6 km/h 81% 0.00 mm 0.00 W/m2 unknown
01:39 20.1 °C 16.6 °C 1016.2 hPa North 3 km/h 6 km/h 80% 0.00 mm 0.00 W/m2 unknown
01:44 20.2 °C 16.6 °C 1016.3 hPa North 3 km/h 6 km/h 80% 0.00 mm 0.00 W/m2 unknown
01:49 20.2 °C 16.6 °C 1016.4 hPa North 2 km/h 5 km/h 80% 0.00 mm 0.00 W/m2 unknown
01:54 20.0 °C 16.4 °C 1016.4 hPa Calm   2 km/h 82% 0.00 mm 0.00 W/m2 unknown
01:59 19.6 °C 16.4 °C 1016.4 hPa Calm     82% 0.00 mm 0.00 W/m2 unknown
02:04 19.4 °C 16.4 °C 1016.4 hPa Calm     83% 0.00 mm 0.00 W/m2 unknown
02:09 19.3 °C 16.4 °C 1016.4 hPa Calm     83% 0.00 mm 0.00 W/m2 unknown
02:14 19.2 °C 16.3 °C 1016.3 hPa Calm     83% 0.00 mm 0.00 W/m2 unknown
02:19 19.3 °C 16.3 °C 1016.4 hPa Calm     83% 0.00 mm 0.00 W/m2 unknown
02:24 19.3 °C 16.3 °C 1016.5 hPa Calm     83% 0.00 mm 0.00 W/m2 unknown
02:29 19.2 °C 16.3 °C 1016.5 hPa Calm     84% 0.00 mm 0.00 W/m2 unknown
02:34 19.1 °C 16.3 °C 1016.5 hPa Calm     84% 0.00 mm 0.00 W/m2 unknown
02:39 19.0 °C 16.3 °C 1016.4 hPa Calm     84% 0.00 mm 0.00 W/m2 unknown
02:44 18.9 °C 16.1 °C 1016.4 hPa Calm     84% 0.00 mm 0.00 W/m2 unknown
02:49 18.9 °C 16.1 °C 1016.4 hPa Calm     84% 0.00 mm 0.00 W/m2 unknown
02:54 18.9 °C 16.1 °C 1016.3 hPa Calm     84% 0.00 mm 0.00 W/m2 unknown
02:59 19.0 °C 16.2 °C 1016.3 hPa Calm     84% 0.00 mm 0.00 W/m2 unknown
03:04 19.0 °C 16.2 °C 1016.2 hPa Calm     84% 0.00 mm 0.00 W/m2 unknown
03:09 18.9 °C 16.2 °C 1016.2 hPa Calm     84% 0.00 mm 0.00 W/m2 unknown
03:14 18.9 °C 16.1 °C 1016.3 hPa WNW 2 km/h 4 km/h 84% 0.00 mm 0.00 W/m2 unknown
03:19 18.5 °C 15.8 °C 1016.3 hPa WNW 3 km/h 4 km/h 86% 0.00 mm 0.00 W/m2 unknown
03:24 18.0 °C 15.7 °C 1016.3 hPa West 2 km/h 4 km/h 87% 0.00 mm 0.00 W/m2 unknown
03:29 17.8 °C 15.7 °C 1016.3 hPa West 2 km/h 4 km/h 87% 0.00 mm 0.00 W/m2 unknown
03:34 18.0 °C 15.8 °C 1016.3 hPa WNW 2 km/h 4 km/h 87% 0.00 mm 0.00 W/m2 unknown
03:39 18.2 °C 15.9 °C 1016.2 hPa NW 2 km/h 4 km/h 87% 0.00 mm 0.00 W/m2 unknown
03:44 18.4 °C 16.0 °C 1016.3 hPa NNW 2 km/h 4 km/h 86% 0.00 mm 0.00 W/m2 unknown
03:49 18.5 °C 16.0 °C 1016.3 hPa NNW 1 km/h 3 km/h 86% 0.00 mm 0.00 W/m2 unknown
03:54 18.4 °C 15.9 °C 1016.4 hPa East 1 km/h 4 km/h 86% 0.00 mm 0.00 W/m2 unknown
03:59 18.3 °C 15.8 °C 1016.5 hPa East 2 km/h 4 km/h 86% 0.00 mm 0.00 W/m2 unknown
04:04 18.1 °C 15.8 °C 1016.5 hPa SE 3 km/h 6 km/h 87% 0.00 mm 0.00 W/m2 unknown
04:09 17.9 °C 15.8 °C 1016.6 hPa SE 3 km/h 6 km/h 88% 0.00 mm 0.00 W/m2 unknown
Stazione Meteorologica MeteoMincio Rivalta s/M (MN)
Con i complimenti di Weather Underground - 2 mb



GLOSSARIO METEOROLOGICO
Nebbia
Sospensione nell'atmosfera di piccolissime gocce d'acqua, che riduce generalmente la visibilità orizzontale sulla superficie terrestre a meno di un chilometro.
Share

Non seguire questo link o sarai bannato dal sito!